TimeCST,TemperatureF,Dew PointF,Humidity,Sea Level PressureIn,VisibilityMPH,Wind Direction,Wind SpeedMPH,Gust SpeedMPH,PrecipitationIn,Events,Conditions,WindDirDegrees,DateUTC
12:04 AM,-5.8,-9.4,84,30.24,10.0,NW,10.4,-,N/A,,Clear,310,2014-01-05 06:04:00
12:25 AM,-5.8,-9.4,84,30.24,10.0,NW,12.7,-,N/A,,Clear,310,2014-01-05 06:25:00
12:45 AM,-4.0,-11.2,71,30.23,10.0,NW,13.8,-,N/A,,Clear,320,2014-01-05 06:45:00
1:04 AM,-5.8,-11.2,77,30.24,10.0,NW,15.0,-,N/A,,Clear,320,2014-01-05 07:04:00
1:25 AM,-5.8,-13.0,71,30.25,10.0,NNW,13.8,-,N/A,,Clear,330,2014-01-05 07:25:00
1:45 AM,-5.8,-13.0,71,30.25,10.0,NW,15.0,-,N/A,,Clear,320,2014-01-05 07:45:00
2:05 AM,-7.6,-14.8,71,30.26,10.0,NW,12.7,-,N/A,,Clear,320,2014-01-05 08:05:00
2:25 AM,-7.6,-14.8,71,30.26,10.0,NW,13.8,-,N/A,,Clear,320,2014-01-05 08:25:00
2:44 AM,-7.6,-14.8,71,30.26,10.0,NNW,16.1,-,N/A,,Clear,330,2014-01-05 08:44:00
3:05 AM,-7.6,-16.6,65,30.27,10.0,NW,12.7,-,N/A,,Clear,320,2014-01-05 09:05:00
3:25 AM,-9.4,-16.6,71,30.27,10.0,NW,12.7,-,N/A,,Clear,320,2014-01-05 09:25:00
3:44 AM,-9.4,-16.6,71,30.28,10.0,NW,10.4,-,N/A,,Clear,320,2014-01-05 09:44:00
4:05 AM,-9.4,-16.6,71,30.28,10.0,NW,10.4,-,N/A,,Clear,310,2014-01-05 10:05:00
4:25 AM,-9.4,-16.6,71,30.28,10.0,NW,9.2,-,N/A,,Clear,320,2014-01-05 10:25:00
4:44 AM,-9.4,-16.6,71,30.29,10.0,NW,9.2,-,N/A,,Clear,320,2014-01-05 10:44:00
5:05 AM,-9.4,-18.4,65,30.30,10.0,NW,5.8,-,N/A,,Clear,320,2014-01-05 11:05:00
5:25 AM,-9.4,-18.4,65,30.31,10.0,NW,9.2,-,N/A,,Clear,320,2014-01-05 11:25:00
5:44 AM,-11.2,-18.4,70,30.32,10.0,NW,6.9,-,N/A,,Clear,310,2014-01-05 11:44:00
6:05 AM,-13.0,-18.4,77,30.32,10.0,WNW,8.1,-,N/A,,Clear,300,2014-01-05 12:05:00
6:25 AM,-13.0,-18.4,77,30.34,10.0,WNW,8.1,-,N/A,,Clear,300,2014-01-05 12:25:00
6:44 AM,-13.0,-18.4,77,30.34,10.0,WNW,8.1,-,N/A,,Clear,300,2014-01-05 12:44:00
7:05 AM,-13.0,-18.4,77,30.34,10.0,WNW,8.1,-,N/A,,Clear,300,2014-01-05 13:05:00
7:25 AM,-14.8,-20.2,77,30.34,10.0,WNW,5.8,-,N/A,,Clear,290,2014-01-05 13:25:00
7:45 AM,-14.8,-20.2,77,30.35,10.0,WNW,6.9,-,N/A,,Clear,290,2014-01-05 13:45:00
8:05 AM,-14.8,-20.2,77,30.35,10.0,West,4.6,-,N/A,,Clear,280,2014-01-05 14:05:00
8:25 AM,-14.8,-18.4,84,30.35,10.0,West,6.9,-,N/A,,Clear,280,2014-01-05 14:25:00
8:45 AM,-13.0,-18.4,77,30.35,10.0,West,5.8,-,N/A,,Clear,280,2014-01-05 14:45:00
9:05 AM,-11.2,-18.4,70,30.35,10.0,WNW,5.8,-,N/A,,Clear,300,2014-01-05 15:05:00
9:25 AM,-11.2,-16.6,77,30.35,10.0,NW,6.9,-,N/A,,Clear,310,2014-01-05 15:25:00
9:45 AM,-9.4,-16.6,71,30.35,10.0,NW,10.4,-,N/A,,Clear,310,2014-01-05 15:45:00
10:05 AM,-9.4,-16.6,71,30.35,10.0,NW,9.2,-,N/A,,Clear,310,2014-01-05 16:05:00
10:25 AM,-9.4,-16.6,71,30.35,10.0,NW,10.4,-,N/A,,Clear,310,2014-01-05 16:25:00
10:45 AM,-7.6,-16.6,65,30.34,10.0,WNW,12.7,-,N/A,,Clear,300,2014-01-05 16:45:00
11:05 AM,-7.6,-16.6,65,30.33,10.0,NW,12.7,17.3,N/A,,Clear,310,2014-01-05 17:05:00
11:25 AM,-7.6,-16.6,65,30.32,10.0,WNW,13.8,-,N/A,,Clear,300,2014-01-05 17:25:00
11:45 AM,-7.6,-18.4,59,30.31,10.0,WNW,15.0,-,N/A,,Clear,300,2014-01-05 17:45:00
12:05 PM,-5.8,-18.4,55,30.31,10.0,WNW,13.8,-,N/A,,Clear,300,2014-01-05 18:05:00
12:25 PM,-5.8,-16.6,60,30.30,10.0,NW,16.1,-,N/A,,Clear,310,2014-01-05 18:25:00
12:45 PM,-5.8,-16.6,60,30.29,10.0,WNW,15.0,-,N/A,,Clear,290,2014-01-05 18:45:00
1:04 PM,-5.8,-16.6,60,30.28,10.0,WNW,13.8,-,N/A,,Clear,300,2014-01-05 19:04:00
1:25 PM,-5.8,-16.6,60,30.27,10.0,WNW,17.3,-,N/A,,Clear,300,2014-01-05 19:25:00
1:45 PM,-5.8,-16.6,60,30.27,10.0,WNW,16.1,-,N/A,,Clear,290,2014-01-05 19:45:00
2:04 PM,-5.8,-16.6,60,30.27,10.0,WNW,18.4,-,N/A,,Clear,290,2014-01-05 20:04:00
2:25 PM,-7.6,-16.6,65,30.27,10.0,WNW,20.7,-,N/A,,Clear,290,2014-01-05 20:25:00
2:45 PM,-7.6,-18.4,59,30.28,10.0,WNW,18.4,-,N/A,,Clear,290,2014-01-05 20:45:00
3:04 PM,-7.6,-18.4,59,30.28,10.0,WNW,18.4,23.0,N/A,,Clear,300,2014-01-05 21:04:00
3:25 PM,-7.6,-18.4,59,30.29,10.0,WNW,17.3,-,N/A,,Clear,290,2014-01-05 21:25:00
3:45 PM,-9.4,-18.4,65,30.29,10.0,WNW,20.7,28.8,N/A,,Clear,290,2014-01-05 21:45:00
4:05 PM,-9.4,-18.4,65,30.29,7.0,WNW,20.7,26.5,N/A,,Clear,290,2014-01-05 22:05:00
4:25 PM,-9.4,-18.4,65,30.30,4.0,WNW,21.9,-,N/A,,Haze,290,2014-01-05 22:25:00
4:44 PM,-9.4,-16.6,71,30.29,4.0,WNW,21.9,-,N/A,,Haze,290,2014-01-05 22:44:00
5:05 PM,-11.2,-20.2,64,30.31,10.0,WNW,17.3,-,N/A,,Scattered Clouds,290,2014-01-05 23:05:00
5:25 PM,-13.0,-20.2,70,30.31,7.0,WNW,18.4,-,N/A,,Clear,290,2014-01-05 23:25:00
5:44 PM,-13.0,-20.2,70,30.31,10.0,WNW,15.0,-,N/A,,Clear,290,2014-01-05 23:44:00
6:05 PM,-14.8,-22.0,70,30.31,10.0,WNW,16.1,23.0,N/A,,Clear,290,2014-01-06 00:05:00
6:25 PM,-14.8,-23.8,64,30.32,10.0,WNW,17.3,24.2,N/A,,Clear,290,2014-01-06 00:25:00
6:45 PM,-14.8,-23.8,64,30.32,10.0,WNW,16.1,-,N/A,,Clear,300,2014-01-06 00:45:00
7:05 PM,-16.6,-23.8,70,30.31,10.0,WNW,20.7,25.3,N/A,,Clear,300,2014-01-06 01:05:00
7:25 PM,-16.6,-23.8,70,30.32,10.0,WNW,17.3,-,N/A,,Clear,290,2014-01-06 01:25:00
7:45 PM,-16.6,-25.6,64,30.32,10.0,WNW,18.4,23.0,N/A,,Clear,290,2014-01-06 01:45:00
8:05 PM,-16.6,-25.6,64,30.32,10.0,WNW,21.9,-,N/A,,Clear,300,2014-01-06 02:05:00
8:24 PM,-18.4,-25.6,70,30.32,10.0,WNW,19.6,25.3,N/A,,Clear,290,2014-01-06 02:24:00
8:45 PM,-18.4,-25.6,70,30.32,10.0,WNW,13.8,19.6,N/A,,Clear,300,2014-01-06 02:45:00
9:04 PM,-18.4,-27.4,63,30.32,10.0,WNW,21.9,27.6,N/A,,Clear,300,2014-01-06 03:04:00
9:25 PM,-18.4,-27.4,63,30.31,10.0,WNW,19.6,25.3,N/A,,Clear,300,2014-01-06 03:25:00
9:45 PM,-18.4,-29.2,58,30.31,10.0,WNW,18.4,24.2,N/A,,Clear,300,2014-01-06 03:45:00
10:04 PM,-20.2,-29.2,63,30.31,10.0,WNW,16.1,-,N/A,,Clear,300,2014-01-06 04:04:00
10:25 PM,-20.2,-29.2,63,30.30,10.0,WNW,15.0,-,N/A,,Clear,300,2014-01-06 04:25:00
10:45 PM,-20.2,-29.2,63,30.30,10.0,WNW,16.1,20.7,N/A,,Clear,300,2014-01-06 04:45:00
11:04 PM,-20.2,-29.2,63,30.30,10.0,WNW,17.3,20.7,N/A,,Clear,290,2014-01-06 05:04:00
11:25 PM,-20.2,-29.2,63,30.29,10.0,WNW,16.1,23.0,N/A,,Clear,300,2014-01-06 05:25:00
11:45 PM,-22.0,-31.0,63,30.29,10.0,WNW,17.3,-,N/A,,Clear,300,2014-01-06 05:45:00